sensor_id;sensor_type;location;lat;lon;timestamp;P1;durP1;ratioP1;P2;durP2;ratioP2
74908;SDS011;63468;52.058;4.824;2022-11-23T00:00:54;41.88;;;26.38;;
74908;SDS011;63468;52.058;4.824;2022-11-23T00:03:19;45.13;;;26.35;;
74908;SDS011;63468;52.058;4.824;2022-11-23T00:05:44;39.22;;;24.67;;
74908;SDS011;63468;52.058;4.824;2022-11-23T00:08:10;41.47;;;26.00;;
74908;SDS011;63468;52.058;4.824;2022-11-23T00:10:35;37.33;;;24.10;;
74908;SDS011;63468;52.058;4.824;2022-11-23T00:13:00;39.97;;;25.30;;
74908;SDS011;63468;52.058;4.824;2022-11-23T00:15:26;49.67;;;26.70;;
74908;SDS011;63468;52.058;4.824;2022-11-23T00:17:51;44.78;;;27.40;;
74908;SDS011;63468;52.058;4.824;2022-11-23T00:20:16;42.33;;;26.23;;
74908;SDS011;63468;52.058;4.824;2022-11-23T00:22:41;44.28;;;26.73;;
74908;SDS011;63468;52.058;4.824;2022-11-23T00:25:07;40.40;;;24.27;;
74908;SDS011;63468;52.058;4.824;2022-11-23T00:27:32;50.85;;;26.85;;
74908;SDS011;63468;52.058;4.824;2022-11-23T00:29:58;42.47;;;25.60;;
74908;SDS011;63468;52.058;4.824;2022-11-23T00:32:23;41.03;;;25.17;;
74908;SDS011;63468;52.058;4.824;2022-11-23T00:34:48;42.47;;;26.15;;
74908;SDS011;63468;52.058;4.824;2022-11-23T00:37:14;46.65;;;27.75;;
74908;SDS011;63468;52.058;4.824;2022-11-23T00:39:39;49.17;;;26.55;;
74908;SDS011;63468;52.058;4.824;2022-11-23T00:42:04;46.67;;;27.00;;
74908;SDS011;63468;52.058;4.824;2022-11-23T00:44:30;44.13;;;25.40;;
74908;SDS011;63468;52.058;4.824;2022-11-23T00:46:55;45.72;;;26.50;;
74908;SDS011;63468;52.058;4.824;2022-11-23T00:49:20;49.00;;;29.80;;
74908;SDS011;63468;52.058;4.824;2022-11-23T00:51:46;47.60;;;27.70;;
74908;SDS011;63468;52.058;4.824;2022-11-23T00:54:11;39.35;;;25.17;;
74908;SDS011;63468;52.058;4.824;2022-11-23T00:56:37;45.30;;;27.20;;
74908;SDS011;63468;52.058;4.824;2022-11-23T00:59:02;50.42;;;26.33;;
74908;SDS011;63468;52.058;4.824;2022-11-23T01:01:29;45.60;;;26.15;;
74908;SDS011;63468;52.058;4.824;2022-11-23T01:03:58;37.40;;;25.83;;
74908;SDS011;63468;52.058;4.824;2022-11-23T01:06:37;47.90;;;27.02;;
74908;SDS011;63468;52.058;4.824;2022-11-23T01:09:04;42.67;;;25.73;;
74908;SDS011;63468;52.058;4.824;2022-11-23T01:11:41;42.17;;;25.60;;
74908;SDS011;63468;52.058;4.824;2022-11-23T01:14:07;44.33;;;26.48;;
74908;SDS011;63468;52.058;4.824;2022-11-23T01:16:33;46.08;;;27.35;;
74908;SDS011;63468;52.058;4.824;2022-11-23T01:19:01;41.33;;;24.95;;
74908;SDS011;63468;52.058;4.824;2022-11-23T01:21:28;44.50;;;25.15;;
74908;SDS011;63468;52.058;4.824;2022-11-23T01:23:55;43.47;;;24.67;;
74908;SDS011;63468;52.058;4.824;2022-11-23T01:26:21;42.58;;;25.17;;
74908;SDS011;63468;52.058;4.824;2022-11-23T01:28:47;44.95;;;25.05;;
74908;SDS011;63468;52.058;4.824;2022-11-23T01:31:13;44.20;;;25.77;;
74908;SDS011;63468;52.058;4.824;2022-11-23T01:33:40;44.15;;;26.40;;
74908;SDS011;63468;52.058;4.824;2022-11-23T01:38:35;37.05;;;22.80;;
74908;SDS011;63468;52.058;4.824;2022-11-23T01:41:01;37.15;;;24.17;;
74908;SDS011;63468;52.058;4.824;2022-11-23T01:43:28;33.20;;;24.15;;
74908;SDS011;63468;52.058;4.824;2022-11-23T01:45:54;47.97;;;24.88;;
74908;SDS011;63468;52.058;4.824;2022-11-23T01:48:24;39.33;;;24.17;;
74908;SDS011;63468;52.058;4.824;2022-11-23T01:50:51;34.22;;;24.30;;
74908;SDS011;63468;52.058;4.824;2022-11-23T01:53:17;37.30;;;24.85;;
74908;SDS011;63468;52.058;4.824;2022-11-23T01:55:44;35.60;;;22.80;;
74908;SDS011;63468;52.058;4.824;2022-11-23T01:58:11;39.92;;;24.30;;
74908;SDS011;63468;52.058;4.824;2022-11-23T02:00:37;46.58;;;23.75;;
74908;SDS011;63468;52.058;4.824;2022-11-23T02:03:03;37.22;;;23.02;;
74908;SDS011;63468;52.058;4.824;2022-11-23T02:05:31;33.17;;;23.00;;
74908;SDS011;63468;52.058;4.824;2022-11-23T02:07:59;38.25;;;22.67;;
74908;SDS011;63468;52.058;4.824;2022-11-23T02:10:25;35.03;;;21.92;;
74908;SDS011;63468;52.058;4.824;2022-11-23T02:12:51;28.73;;;21.08;;
74908;SDS011;63468;52.058;4.824;2022-11-23T02:15:17;34.10;;;20.20;;
74908;SDS011;63468;52.058;4.824;2022-11-23T02:17:42;30.92;;;19.63;;
74908;SDS011;63468;52.058;4.824;2022-11-23T02:20:09;31.23;;;19.73;;
74908;SDS011;63468;52.058;4.824;2022-11-23T02:25:35;28.73;;;19.50;;
74908;SDS011;63468;52.058;4.824;2022-11-23T02:28:03;25.13;;;20.48;;
74908;SDS011;63468;52.058;4.824;2022-11-23T02:30:29;26.38;;;18.60;;
74908;SDS011;63468;52.058;4.824;2022-11-23T02:32:55;35.88;;;19.52;;
74908;SDS011;63468;52.058;4.824;2022-11-23T02:35:20;27.90;;;18.20;;
74908;SDS011;63468;52.058;4.824;2022-11-23T02:37:46;30.60;;;19.05;;
74908;SDS011;63468;52.058;4.824;2022-11-23T02:40:22;24.42;;;19.52;;
74908;SDS011;63468;52.058;4.824;2022-11-23T02:42:51;27.98;;;17.98;;
74908;SDS011;63468;52.058;4.824;2022-11-23T02:45:25;28.73;;;19.58;;
74908;SDS011;63468;52.058;4.824;2022-11-23T02:47:52;27.42;;;21.38;;
74908;SDS011;63468;52.058;4.824;2022-11-23T02:50:17;30.40;;;20.30;;
74908;SDS011;63468;52.058;4.824;2022-11-23T02:52:43;27.88;;;22.05;;
74908;SDS011;63468;52.058;4.824;2022-11-23T02:55:08;34.53;;;21.77;;
74908;SDS011;63468;52.058;4.824;2022-11-23T02:57:34;36.00;;;22.88;;
74908;SDS011;63468;52.058;4.824;2022-11-23T02:59:59;42.08;;;24.23;;
74908;SDS011;63468;52.058;4.824;2022-11-23T03:02:24;35.50;;;24.02;;
74908;SDS011;63468;52.058;4.824;2022-11-23T03:04:50;42.95;;;24.77;;
74908;SDS011;63468;52.058;4.824;2022-11-23T03:07:15;36.70;;;24.05;;
74908;SDS011;63468;52.058;4.824;2022-11-23T03:09:40;36.95;;;25.00;;
74908;SDS011;63468;52.058;4.824;2022-11-23T03:12:05;38.40;;;25.42;;
74908;SDS011;63468;52.058;4.824;2022-11-23T03:14:31;39.78;;;25.20;;
74908;SDS011;63468;52.058;4.824;2022-11-23T03:16:56;38.80;;;25.42;;
74908;SDS011;63468;52.058;4.824;2022-11-23T03:19:22;42.20;;;24.52;;
74908;SDS011;63468;52.058;4.824;2022-11-23T03:21:47;42.50;;;25.63;;
74908;SDS011;63468;52.058;4.824;2022-11-23T03:24:13;42.92;;;26.15;;
74908;SDS011;63468;52.058;4.824;2022-11-23T03:26:38;35.22;;;23.13;;
74908;SDS011;63468;52.058;4.824;2022-11-23T03:29:03;39.08;;;22.67;;
74908;SDS011;63468;52.058;4.824;2022-11-23T03:31:29;32.45;;;22.75;;
74908;SDS011;63468;52.058;4.824;2022-11-23T03:33:54;34.92;;;23.60;;
74908;SDS011;63468;52.058;4.824;2022-11-23T03:36:19;34.08;;;22.35;;
74908;SDS011;63468;52.058;4.824;2022-11-23T03:38:44;31.48;;;21.80;;
74908;SDS011;63468;52.058;4.824;2022-11-23T03:41:10;28.13;;;19.80;;
74908;SDS011;63468;52.058;4.824;2022-11-23T03:43:35;30.33;;;20.25;;
74908;SDS011;63468;52.058;4.824;2022-11-23T03:46:00;30.60;;;20.10;;
74908;SDS011;63468;52.058;4.824;2022-11-23T03:48:26;26.95;;;18.85;;
74908;SDS011;63468;52.058;4.824;2022-11-23T03:50:51;28.52;;;19.08;;
74908;SDS011;63468;52.058;4.824;2022-11-23T03:53:16;22.80;;;17.55;;
74908;SDS011;63468;52.058;4.824;2022-11-23T03:55:44;25.92;;;17.95;;
74908;SDS011;63468;52.058;4.824;2022-11-23T03:58:09;25.35;;;17.58;;
74908;SDS011;63468;52.058;4.824;2022-11-23T04:00:35;25.83;;;17.88;;
74908;SDS011;63468;52.058;4.824;2022-11-23T04:03:00;28.20;;;18.55;;
74908;SDS011;63468;52.058;4.824;2022-11-23T04:05:25;26.40;;;19.23;;
74908;SDS011;63468;52.058;4.824;2022-11-23T04:07:51;26.85;;;19.30;;
74908;SDS011;63468;52.058;4.824;2022-11-23T04:10:17;25.25;;;18.60;;
74908;SDS011;63468;52.058;4.824;2022-11-23T04:12:43;28.67;;;19.05;;
74908;SDS011;63468;52.058;4.824;2022-11-23T04:15:09;32.72;;;19.60;;
74908;SDS011;63468;52.058;4.824;2022-11-23T04:17:35;29.13;;;20.88;;
74908;SDS011;63468;52.058;4.824;2022-11-23T04:20:00;39.22;;;21.77;;
74908;SDS011;63468;52.058;4.824;2022-11-23T04:22:25;32.38;;;21.65;;
74908;SDS011;63468;52.058;4.824;2022-11-23T04:24:51;30.88;;;22.10;;
74908;SDS011;63468;52.058;4.824;2022-11-23T04:27:16;31.38;;;21.27;;
74908;SDS011;63468;52.058;4.824;2022-11-23T04:29:41;29.33;;;22.35;;
74908;SDS011;63468;52.058;4.824;2022-11-23T04:32:06;31.20;;;21.63;;
74908;SDS011;63468;52.058;4.824;2022-11-23T04:34:32;32.13;;;22.42;;
74908;SDS011;63468;52.058;4.824;2022-11-23T04:36:57;32.72;;;22.00;;
74908;SDS011;63468;52.058;4.824;2022-11-23T04:39:23;29.88;;;21.52;;
74908;SDS011;63468;52.058;4.824;2022-11-23T04:41:48;34.30;;;24.23;;
74908;SDS011;63468;52.058;4.824;2022-11-23T04:44:13;27.33;;;20.15;;
74908;SDS011;63468;52.058;4.824;2022-11-23T04:46:41;26.38;;;20.23;;
74908;SDS011;63468;52.058;4.824;2022-11-23T04:49:07;28.33;;;20.48;;
74908;SDS011;63468;52.058;4.824;2022-11-23T04:51:33;34.88;;;21.20;;
74908;SDS011;63468;52.058;4.824;2022-11-23T04:53:58;29.40;;;20.63;;
74908;SDS011;63468;52.058;4.824;2022-11-23T04:56:23;34.08;;;20.08;;
74908;SDS011;63468;52.058;4.824;2022-11-23T04:58:49;28.65;;;20.75;;
74908;SDS011;63468;52.058;4.824;2022-11-23T05:01:14;35.78;;;20.33;;
74908;SDS011;63468;52.058;4.824;2022-11-23T05:03:39;29.00;;;20.15;;
74908;SDS011;63468;52.058;4.824;2022-11-23T05:06:05;33.15;;;20.20;;
74908;SDS011;63468;52.058;4.824;2022-11-23T05:08:31;31.00;;;20.35;;
74908;SDS011;63468;52.058;4.824;2022-11-23T05:10:56;28.30;;;20.58;;
74908;SDS011;63468;52.058;4.824;2022-11-23T05:13:22;31.00;;;21.08;;
74908;SDS011;63468;52.058;4.824;2022-11-23T05:15:47;26.08;;;21.00;;
74908;SDS011;63468;52.058;4.824;2022-11-23T05:18:13;31.42;;;22.30;;
74908;SDS011;63468;52.058;4.824;2022-11-23T05:20:38;24.00;;;20.65;;
74908;SDS011;63468;52.058;4.824;2022-11-23T05:23:04;32.90;;;20.92;;
74908;SDS011;63468;52.058;4.824;2022-11-23T05:25:29;26.15;;;20.10;;
74908;SDS011;63468;52.058;4.824;2022-11-23T05:27:54;30.13;;;19.67;;
74908;SDS011;63468;52.058;4.824;2022-11-23T05:30:20;25.10;;;21.02;;
74908;SDS011;63468;52.058;4.824;2022-11-23T05:32:45;29.80;;;19.23;;
74908;SDS011;63468;52.058;4.824;2022-11-23T05:35:11;26.70;;;19.02;;
74908;SDS011;63468;52.058;4.824;2022-11-23T05:37:36;28.92;;;19.85;;
74908;SDS011;63468;52.058;4.824;2022-11-23T05:40:02;28.52;;;19.40;;
74908;SDS011;63468;52.058;4.824;2022-11-23T05:42:28;31.52;;;17.85;;
74908;SDS011;63468;52.058;4.824;2022-11-23T05:44:54;21.10;;;17.33;;
74908;SDS011;63468;52.058;4.824;2022-11-23T05:47:19;19.02;;;16.90;;
74908;SDS011;63468;52.058;4.824;2022-11-23T05:49:44;18.13;;;16.02;;
74908;SDS011;63468;52.058;4.824;2022-11-23T05:52:09;27.42;;;16.83;;
74908;SDS011;63468;52.058;4.824;2022-11-23T05:54:35;18.42;;;16.13;;
74908;SDS011;63468;52.058;4.824;2022-11-23T05:57:00;20.63;;;15.77;;
74908;SDS011;63468;52.058;4.824;2022-11-23T05:59:25;19.17;;;16.17;;
74908;SDS011;63468;52.058;4.824;2022-11-23T06:01:51;24.35;;;16.67;;
74908;SDS011;63468;52.058;4.824;2022-11-23T06:04:16;22.90;;;16.25;;
74908;SDS011;63468;52.058;4.824;2022-11-23T06:06:41;18.73;;;15.98;;
74908;SDS011;63468;52.058;4.824;2022-11-23T06:09:07;23.83;;;16.60;;
74908;SDS011;63468;52.058;4.824;2022-11-23T06:11:32;25.27;;;16.92;;
74908;SDS011;63468;52.058;4.824;2022-11-23T06:13:57;25.60;;;17.85;;
74908;SDS011;63468;52.058;4.824;2022-11-23T06:16:23;28.55;;;18.52;;
74908;SDS011;63468;52.058;4.824;2022-11-23T06:18:48;21.52;;;17.38;;
74908;SDS011;63468;52.058;4.824;2022-11-23T06:21:13;23.67;;;17.30;;
74908;SDS011;63468;52.058;4.824;2022-11-23T06:23:39;21.75;;;17.80;;
74908;SDS011;63468;52.058;4.824;2022-11-23T06:26:04;29.92;;;18.83;;
74908;SDS011;63468;52.058;4.824;2022-11-23T06:28:29;25.95;;;17.45;;
74908;SDS011;63468;52.058;4.824;2022-11-23T06:30:55;20.92;;;17.63;;
74908;SDS011;63468;52.058;4.824;2022-11-23T06:33:20;22.50;;;17.88;;
74908;SDS011;63468;52.058;4.824;2022-11-23T06:35:56;25.65;;;18.05;;
74908;SDS011;63468;52.058;4.824;2022-11-23T06:38:23;23.08;;;17.88;;
74908;SDS011;63468;52.058;4.824;2022-11-23T06:40:48;25.55;;;19.25;;
74908;SDS011;63468;52.058;4.824;2022-11-23T06:43:13;24.17;;;18.45;;
74908;SDS011;63468;52.058;4.824;2022-11-23T06:45:39;21.65;;;16.63;;
74908;SDS011;63468;52.058;4.824;2022-11-23T06:48:04;24.75;;;17.48;;
74908;SDS011;63468;52.058;4.824;2022-11-23T06:50:29;29.10;;;16.08;;
74908;SDS011;63468;52.058;4.824;2022-11-23T06:52:55;23.77;;;16.88;;
74908;SDS011;63468;52.058;4.824;2022-11-23T06:55:21;21.05;;;17.45;;
74908;SDS011;63468;52.058;4.824;2022-11-23T06:57:47;23.00;;;17.00;;
74908;SDS011;63468;52.058;4.824;2022-11-23T07:00:12;24.48;;;16.40;;
74908;SDS011;63468;52.058;4.824;2022-11-23T07:02:38;19.80;;;15.65;;
74908;SDS011;63468;52.058;4.824;2022-11-23T07:05:04;20.83;;;16.80;;
74908;SDS011;63468;52.058;4.824;2022-11-23T07:07:30;22.05;;;15.35;;
74908;SDS011;63468;52.058;4.824;2022-11-23T07:09:55;18.67;;;15.23;;
74908;SDS011;63468;52.058;4.824;2022-11-23T07:12:20;25.63;;;14.57;;
74908;SDS011;63468;52.058;4.824;2022-11-23T07:14:46;22.65;;;14.77;;
74908;SDS011;63468;52.058;4.824;2022-11-23T07:17:11;17.75;;;13.48;;
74908;SDS011;63468;52.058;4.824;2022-11-23T07:19:36;28.20;;;13.77;;
74908;SDS011;63468;52.058;4.824;2022-11-23T07:22:02;20.35;;;13.50;;
74908;SDS011;63468;52.058;4.824;2022-11-23T07:24:27;22.42;;;13.63;;
74908;SDS011;63468;52.058;4.824;2022-11-23T07:26:52;21.08;;;14.98;;
74908;SDS011;63468;52.058;4.824;2022-11-23T07:29:18;22.08;;;15.32;;
74908;SDS011;63468;52.058;4.824;2022-11-23T07:31:43;31.83;;;16.23;;
74908;SDS011;63468;52.058;4.824;2022-11-23T07:34:08;24.17;;;15.88;;
74908;SDS011;63468;52.058;4.824;2022-11-23T07:36:35;15.88;;;13.23;;
74908;SDS011;63468;52.058;4.824;2022-11-23T07:39:00;20.35;;;12.73;;
74908;SDS011;63468;52.058;4.824;2022-11-23T07:41:25;26.88;;;14.05;;
74908;SDS011;63468;52.058;4.824;2022-11-23T07:43:51;20.65;;;13.25;;
74908;SDS011;63468;52.058;4.824;2022-11-23T07:46:17;21.13;;;13.23;;
74908;SDS011;63468;52.058;4.824;2022-11-23T07:48:42;19.35;;;13.20;;
74908;SDS011;63468;52.058;4.824;2022-11-23T07:51:07;20.73;;;14.15;;
74908;SDS011;63468;52.058;4.824;2022-11-23T07:53:33;24.33;;;12.60;;
74908;SDS011;63468;52.058;4.824;2022-11-23T07:56:00;16.88;;;12.82;;
74908;SDS011;63468;52.058;4.824;2022-11-23T07:58:25;16.38;;;12.85;;
74908;SDS011;63468;52.058;4.824;2022-11-23T08:00:51;19.23;;;12.57;;
74908;SDS011;63468;52.058;4.824;2022-11-23T08:03:16;19.70;;;13.02;;
74908;SDS011;63468;52.058;4.824;2022-11-23T08:05:41;22.30;;;13.23;;
74908;SDS011;63468;52.058;4.824;2022-11-23T08:08:07;28.77;;;14.05;;
74908;SDS011;63468;52.058;4.824;2022-11-23T08:10:32;16.42;;;12.10;;
74908;SDS011;63468;52.058;4.824;2022-11-23T08:12:58;20.83;;;13.00;;
74908;SDS011;63468;52.058;4.824;2022-11-23T08:15:24;18.35;;;12.63;;
74908;SDS011;63468;52.058;4.824;2022-11-23T08:17:58;27.58;;;13.25;;
74908;SDS011;63468;52.058;4.824;2022-11-23T08:20:25;26.15;;;14.38;;
74908;SDS011;63468;52.058;4.824;2022-11-23T08:22:54;19.88;;;13.02;;
74908;SDS011;63468;52.058;4.824;2022-11-23T08:25:20;23.02;;;13.15;;
74908;SDS011;63468;52.058;4.824;2022-11-23T08:27:46;28.52;;;15.52;;
74908;SDS011;63468;52.058;4.824;2022-11-23T08:30:12;30.23;;;16.05;;
74908;SDS011;63468;52.058;4.824;2022-11-23T08:32:38;34.10;;;18.65;;
74908;SDS011;63468;52.058;4.824;2022-11-23T08:35:03;32.75;;;16.98;;
74908;SDS011;63468;52.058;4.824;2022-11-23T08:37:28;31.38;;;17.27;;
74908;SDS011;63468;52.058;4.824;2022-11-23T08:39:54;58.65;;;24.15;;
74908;SDS011;63468;52.058;4.824;2022-11-23T08:42:19;22.25;;;15.32;;
74908;SDS011;63468;52.058;4.824;2022-11-23T08:44:44;18.73;;;13.88;;
74908;SDS011;63468;52.058;4.824;2022-11-23T08:47:10;24.50;;;14.95;;
74908;SDS011;63468;52.058;4.824;2022-11-23T08:49:35;21.92;;;13.52;;
74908;SDS011;63468;52.058;4.824;2022-11-23T08:52:00;22.90;;;14.23;;
74908;SDS011;63468;52.058;4.824;2022-11-23T08:54:26;23.15;;;13.70;;
74908;SDS011;63468;52.058;4.824;2022-11-23T08:56:51;19.75;;;13.13;;
74908;SDS011;63468;52.058;4.824;2022-11-23T08:59:16;21.17;;;13.77;;
74908;SDS011;63468;52.058;4.824;2022-11-23T09:01:43;24.38;;;14.02;;
74908;SDS011;63468;52.058;4.824;2022-11-23T09:04:08;18.58;;;13.95;;
74908;SDS011;63468;52.058;4.824;2022-11-23T09:06:34;26.52;;;14.18;;
74908;SDS011;63468;52.058;4.824;2022-11-23T09:08:59;18.73;;;13.10;;
74908;SDS011;63468;52.058;4.824;2022-11-23T09:11:25;15.82;;;12.68;;
74908;SDS011;63468;52.058;4.824;2022-11-23T09:13:50;21.45;;;14.77;;
74908;SDS011;63468;52.058;4.824;2022-11-23T09:16:16;19.80;;;13.07;;
74908;SDS011;63468;52.058;4.824;2022-11-23T09:18:41;21.42;;;14.27;;
74908;SDS011;63468;52.058;4.824;2022-11-23T09:21:07;22.73;;;13.85;;
74908;SDS011;63468;52.058;4.824;2022-11-23T09:23:32;21.30;;;14.02;;
74908;SDS011;63468;52.058;4.824;2022-11-23T09:26:01;19.20;;;12.93;;
74908;SDS011;63468;52.058;4.824;2022-11-23T09:28:27;16.90;;;12.75;;
74908;SDS011;63468;52.058;4.824;2022-11-23T09:30:53;22.38;;;13.70;;
74908;SDS011;63468;52.058;4.824;2022-11-23T09:33:19;20.73;;;11.65;;
74908;SDS011;63468;52.058;4.824;2022-11-23T09:35:45;19.55;;;12.30;;
74908;SDS011;63468;52.058;4.824;2022-11-23T09:38:10;23.52;;;13.27;;
74908;SDS011;63468;52.058;4.824;2022-11-23T09:40:37;13.73;;;12.27;;
74908;SDS011;63468;52.058;4.824;2022-11-23T09:43:11;22.42;;;12.43;;
74908;SDS011;63468;52.058;4.824;2022-11-23T09:45:47;18.65;;;12.95;;
74908;SDS011;63468;52.058;4.824;2022-11-23T09:54:08;18.05;;;12.85;;
74908;SDS011;63468;52.058;4.824;2022-11-23T09:56:34;22.15;;;13.77;;
74908;SDS011;63468;52.058;4.824;2022-11-23T09:59:11;20.27;;;12.63;;
74908;SDS011;63468;52.058;4.824;2022-11-23T10:01:41;21.92;;;12.85;;
74908;SDS011;63468;52.058;4.824;2022-11-23T10:04:08;18.38;;;12.23;;
74908;SDS011;63468;52.058;4.824;2022-11-23T10:06:39;19.85;;;12.68;;
74908;SDS011;63468;52.058;4.824;2022-11-23T10:15:10;17.42;;;13.50;;
74908;SDS011;63468;52.058;4.824;2022-11-23T10:20:20;17.02;;;13.27;;
74908;SDS011;63468;52.058;4.824;2022-11-23T10:22:58;19.55;;;12.75;;
74908;SDS011;63468;52.058;4.824;2022-11-23T10:25:25;18.52;;;13.18;;
74908;SDS011;63468;52.058;4.824;2022-11-23T10:27:55;21.88;;;14.68;;
74908;SDS011;63468;52.058;4.824;2022-11-23T10:30:23;20.05;;;14.15;;
74908;SDS011;63468;52.058;4.824;2022-11-23T10:38:14;24.13;;;17.92;;
74908;SDS011;63468;52.058;4.824;2022-11-23T10:40:47;22.65;;;16.95;;
74908;SDS011;63468;52.058;4.824;2022-11-23T10:43:20;35.15;;;20.30;;
74908;SDS011;63468;52.058;4.824;2022-11-23T10:45:48;24.88;;;18.58;;
74908;SDS011;63468;52.058;4.824;2022-11-23T10:48:17;23.42;;;18.50;;
74908;SDS011;63468;52.058;4.824;2022-11-23T10:54:00;28.48;;;18.15;;
74908;SDS011;63468;52.058;4.824;2022-11-23T10:56:28;25.27;;;17.83;;
74908;SDS011;63468;52.058;4.824;2022-11-23T10:58:53;20.58;;;17.55;;
74908;SDS011;63468;52.058;4.824;2022-11-23T11:01:23;26.95;;;18.27;;
74908;SDS011;63468;52.058;4.824;2022-11-23T11:03:50;19.80;;;17.48;;
74908;SDS011;63468;52.058;4.824;2022-11-23T11:06:23;23.63;;;16.58;;
74908;SDS011;63468;52.058;4.824;2022-11-23T11:08:51;22.48;;;16.48;;
74908;SDS011;63468;52.058;4.824;2022-11-23T11:11:37;29.75;;;16.20;;
74908;SDS011;63468;52.058;4.824;2022-11-23T11:14:05;18.80;;;14.65;;
74908;SDS011;63468;52.058;4.824;2022-11-23T11:16:48;19.40;;;15.80;;
74908;SDS011;63468;52.058;4.824;2022-11-23T11:19:33;18.30;;;15.45;;
74908;SDS011;63468;52.058;4.824;2022-11-23T11:22:00;18.40;;;15.05;;
74908;SDS011;63468;52.058;4.824;2022-11-23T11:24:49;20.20;;;16.08;;
74908;SDS011;63468;52.058;4.824;2022-11-23T11:27:15;17.15;;;15.30;;
74908;SDS011;63468;52.058;4.824;2022-11-23T11:32:13;15.93;;;14.38;;
74908;SDS011;63468;52.058;4.824;2022-11-23T11:34:43;19.83;;;15.50;;
74908;SDS011;63468;52.058;4.824;2022-11-23T11:42:33;16.75;;;15.00;;
74908;SDS011;63468;52.058;4.824;2022-11-23T11:45:02;21.80;;;15.02;;
74908;SDS011;63468;52.058;4.824;2022-11-23T11:48:12;19.48;;;14.50;;
74908;SDS011;63468;52.058;4.824;2022-11-23T11:50:38;17.75;;;14.50;;
74908;SDS011;63468;52.058;4.824;2022-11-23T11:53:14;20.00;;;14.35;;
74908;SDS011;63468;52.058;4.824;2022-11-23T11:58:14;15.32;;;13.75;;
74908;SDS011;63468;52.058;4.824;2022-11-23T12:00:40;17.75;;;14.23;;
74908;SDS011;63468;52.058;4.824;2022-11-23T12:03:13;16.42;;;13.32;;
74908;SDS011;63468;52.058;4.824;2022-11-23T12:05:48;16.23;;;13.68;;
74908;SDS011;63468;52.058;4.824;2022-11-23T12:11:00;15.18;;;13.60;;
74908;SDS011;63468;52.058;4.824;2022-11-23T12:13:32;14.15;;;12.45;;
74908;SDS011;63468;52.058;4.824;2022-11-23T12:16:11;15.93;;;13.50;;
74908;SDS011;63468;52.058;4.824;2022-11-23T12:19:05;14.88;;;13.38;;
74908;SDS011;63468;52.058;4.824;2022-11-23T12:21:52;15.45;;;13.02;;
74908;SDS011;63468;52.058;4.824;2022-11-23T12:27:07;16.90;;;12.30;;
74908;SDS011;63468;52.058;4.824;2022-11-23T12:32:52;16.33;;;12.18;;
74908;SDS011;63468;52.058;4.824;2022-11-23T12:35:35;18.83;;;12.43;;
74908;SDS011;63468;52.058;4.824;2022-11-23T12:41:05;13.25;;;11.63;;
74908;SDS011;63468;52.058;4.824;2022-11-23T12:46:46;14.93;;;11.40;;
74908;SDS011;63468;52.058;4.824;2022-11-23T12:49:27;13.40;;;12.00;;
74908;SDS011;63468;52.058;4.824;2022-11-23T12:54:57;13.02;;;11.30;;
74908;SDS011;63468;52.058;4.824;2022-11-23T12:57:48;14.02;;;10.98;;
74908;SDS011;63468;52.058;4.824;2022-11-23T13:00:20;12.93;;;11.40;;
74908;SDS011;63468;52.058;4.824;2022-11-23T13:21:53;13.35;;;12.20;;
74908;SDS011;63468;52.058;4.824;2022-11-23T13:29:45;16.52;;;14.85;;
74908;SDS011;63468;52.058;4.824;2022-11-23T13:40:25;14.82;;;12.55;;
74908;SDS011;63468;52.058;4.824;2022-11-23T13:43:05;14.75;;;13.32;;
74908;SDS011;63468;52.058;4.824;2022-11-23T13:45:37;13.80;;;12.63;;
74908;SDS011;63468;52.058;4.824;2022-11-23T13:50:34;16.77;;;13.25;;
74908;SDS011;63468;52.058;4.824;2022-11-23T13:53:02;15.02;;;13.10;;
74908;SDS011;63468;52.058;4.824;2022-11-23T14:00:55;13.60;;;12.30;;
74908;SDS011;63468;52.058;4.824;2022-11-23T14:08:46;16.98;;;12.82;;
74908;SDS011;63468;52.058;4.824;2022-11-23T14:11:16;14.05;;;12.55;;
74908;SDS011;63468;52.058;4.824;2022-11-23T14:13:54;13.77;;;12.48;;
74908;SDS011;63468;52.058;4.824;2022-11-23T14:16:28;14.55;;;13.07;;
74908;SDS011;63468;52.058;4.824;2022-11-23T14:19:05;14.05;;;12.65;;
74908;SDS011;63468;52.058;4.824;2022-11-23T14:21:46;15.73;;;13.05;;
74908;SDS011;63468;52.058;4.824;2022-11-23T14:30:19;15.13;;;13.55;;
74908;SDS011;63468;52.058;4.824;2022-11-23T14:32:51;14.13;;;12.63;;
74908;SDS011;63468;52.058;4.824;2022-11-23T14:35:25;14.65;;;13.25;;
74908;SDS011;63468;52.058;4.824;2022-11-23T14:38:11;15.93;;;14.13;;
74908;SDS011;63468;52.058;4.824;2022-11-23T14:43:28;13.65;;;12.43;;
74908;SDS011;63468;52.058;4.824;2022-11-23T14:45:58;20.60;;;18.70;;
74908;SDS011;63468;52.058;4.824;2022-11-23T14:48:29;20.92;;;19.00;;
74908;SDS011;63468;52.058;4.824;2022-11-23T14:51:03;20.63;;;18.83;;
74908;SDS011;63468;52.058;4.824;2022-11-23T14:53:31;19.27;;;17.65;;
74908;SDS011;63468;52.058;4.824;2022-11-23T14:55:58;19.70;;;18.25;;
74908;SDS011;63468;52.058;4.824;2022-11-23T14:58:24;15.32;;;13.85;;
74908;SDS011;63468;52.058;4.824;2022-11-23T15:00:50;15.75;;;14.10;;
74908;SDS011;63468;52.058;4.824;2022-11-23T15:03:17;21.30;;;13.90;;
74908;SDS011;63468;52.058;4.824;2022-11-23T15:05:44;13.63;;;11.65;;
74908;SDS011;63468;52.058;4.824;2022-11-23T15:08:16;17.85;;;13.32;;
74908;SDS011;63468;52.058;4.824;2022-11-23T15:10:46;14.57;;;13.32;;
74908;SDS011;63468;52.058;4.824;2022-11-23T15:13:29;15.25;;;13.93;;
74908;SDS011;63468;52.058;4.824;2022-11-23T15:15:56;15.07;;;13.57;;
74908;SDS011;63468;52.058;4.824;2022-11-23T15:18:25;14.18;;;12.98;;
74908;SDS011;63468;52.058;4.824;2022-11-23T15:20:52;15.60;;;13.88;;
74908;SDS011;63468;52.058;4.824;2022-11-23T15:23:19;16.50;;;14.77;;
74908;SDS011;63468;52.058;4.824;2022-11-23T15:25:52;15.23;;;13.80;;
74908;SDS011;63468;52.058;4.824;2022-11-23T15:28:21;21.60;;;19.80;;
74908;SDS011;63468;52.058;4.824;2022-11-23T15:30:52;21.17;;;19.27;;
74908;SDS011;63468;52.058;4.824;2022-11-23T15:33:18;24.42;;;22.35;;
74908;SDS011;63468;52.058;4.824;2022-11-23T15:35:45;24.15;;;20.60;;
74908;SDS011;63468;52.058;4.824;2022-11-23T15:38:11;23.98;;;21.88;;
74908;SDS011;63468;52.058;4.824;2022-11-23T15:40:42;21.95;;;20.20;;
74908;SDS011;63468;52.058;4.824;2022-11-23T15:43:12;21.27;;;19.52;;
74908;SDS011;63468;52.058;4.824;2022-11-23T15:45:57;20.77;;;19.00;;
74908;SDS011;63468;52.058;4.824;2022-11-23T15:48:32;20.80;;;19.15;;
74908;SDS011;63468;52.058;4.824;2022-11-23T15:53:27;23.33;;;21.67;;
74908;SDS011;63468;52.058;4.824;2022-11-23T15:55:54;22.90;;;20.55;;
74908;SDS011;63468;52.058;4.824;2022-11-23T15:58:23;23.27;;;21.58;;
74908;SDS011;63468;52.058;4.824;2022-11-23T16:00:50;23.48;;;21.35;;
74908;SDS011;63468;52.058;4.824;2022-11-23T16:03:27;24.40;;;22.35;;
74908;SDS011;63468;52.058;4.824;2022-11-23T16:06:18;21.48;;;19.58;;
74908;SDS011;63468;52.058;4.824;2022-11-23T16:08:59;25.25;;;23.05;;
74908;SDS011;63468;52.058;4.824;2022-11-23T16:11:32;24.35;;;22.25;;
74908;SDS011;63468;52.058;4.824;2022-11-23T16:16:40;26.35;;;23.58;;
74908;SDS011;63468;52.058;4.824;2022-11-23T16:19:26;21.92;;;19.95;;
74908;SDS011;63468;52.058;4.824;2022-11-23T16:21:54;24.98;;;22.77;;